createdAt,value
2024-03-10T00:00:23.073Z,25.38
2024-03-10T00:02:51.946Z,25.00
2024-03-10T00:05:20.796Z,26.42
2024-03-10T00:07:48.826Z,22.75
2024-03-10T00:10:17.474Z,25.73
2024-03-10T00:12:47.990Z,24.45
2024-03-10T00:15:17.708Z,25.73
2024-03-10T00:17:48.089Z,23.75
2024-03-10T00:20:16.901Z,27.17
2024-03-10T00:22:47.047Z,29.05
2024-03-10T00:25:17.584Z,29.35
2024-03-10T00:27:45.676Z,25.67
2024-03-10T00:30:14.551Z,29.13
2024-03-10T00:32:42.998Z,27.83
2024-03-10T00:35:16.166Z,22.77
2024-03-10T00:37:44.200Z,26.25
2024-03-10T00:40:13.399Z,27.85
2024-03-10T00:42:41.271Z,27.48
2024-03-10T00:45:10.829Z,26.77
2024-03-10T00:47:39.606Z,25.45
2024-03-10T00:50:10.731Z,28.70
2024-03-10T00:52:41.595Z,32.47
2024-03-10T00:55:12.291Z,23.40
2024-03-10T00:57:40.459Z,28.85
2024-03-10T01:00:10.827Z,32.22
2024-03-10T01:02:39.229Z,30.17
2024-03-10T01:05:08.358Z,23.70
2024-03-10T01:07:36.177Z,27.33
2024-03-10T01:10:06.320Z,24.95
2024-03-10T01:12:34.384Z,27.63
2024-03-10T01:15:04.565Z,27.52
2024-03-10T01:17:33.132Z,33.17
2024-03-10T01:20:02.416Z,28.23
2024-03-10T01:22:32.421Z,29.95
2024-03-10T01:25:02.009Z,29.40
2024-03-10T01:27:33.352Z,31.15
2024-03-10T01:30:01.751Z,30.42
2024-03-10T01:32:30.550Z,26.45
2024-03-10T01:34:58.761Z,30.13
2024-03-10T01:37:26.569Z,32.53
2024-03-10T01:39:54.933Z,31.77
2024-03-10T01:42:22.642Z,30.75
2024-03-10T01:44:52.050Z,30.70
2024-03-10T01:47:19.871Z,30.38
2024-03-10T01:49:48.686Z,30.65
2024-03-10T01:52:16.541Z,30.45
2024-03-10T01:54:44.903Z,32.65
2024-03-10T01:57:13.466Z,26.45
2024-03-10T01:59:43.188Z,31.55
2024-03-10T02:02:13.386Z,30.95
2024-03-10T02:04:41.822Z,27.92
2024-03-10T02:07:09.724Z,32.45
2024-03-10T02:09:39.219Z,29.23
2024-03-10T02:12:08.026Z,34.58
2024-03-10T02:14:37.149Z,33.50
2024-03-10T02:17:05.189Z,32.58
2024-03-10T02:19:35.246Z,36.92
2024-03-10T02:22:03.752Z,32.85
2024-03-10T02:24:35.706Z,32.60
2024-03-10T02:27:05.233Z,33.53
2024-03-10T02:29:51.202Z,33.58
2024-03-10T02:32:36.845Z,35.47
2024-03-10T02:35:23.679Z,33.05
2024-03-10T02:38:09.193Z,40.70
2024-03-10T02:40:55.212Z,32.97
2024-03-10T02:43:42.181Z,32.75
2024-03-10T02:46:27.711Z,33.78
2024-03-10T02:48:55.851Z,35.72
2024-03-10T02:51:24.264Z,38.00
2024-03-10T02:53:52.583Z,35.58
2024-03-10T02:56:24.170Z,36.03
2024-03-10T02:58:54.006Z,39.38
2024-03-10T03:01:22.496Z,33.50
2024-03-10T03:03:53.333Z,34.30
2024-03-10T03:06:21.760Z,35.90
2024-03-10T03:08:50.162Z,36.42
2024-03-10T03:11:17.955Z,37.05
2024-03-10T03:13:46.175Z,37.70
2024-03-10T03:16:15.305Z,34.38
2024-03-10T03:18:45.111Z,36.58
2024-03-10T03:21:13.095Z,37.63
2024-03-10T03:23:41.513Z,39.85
2024-03-10T03:26:09.636Z,38.42
2024-03-10T03:28:38.191Z,37.15
2024-03-10T03:31:06.761Z,40.00
2024-03-10T03:33:36.641Z,39.88
2024-03-10T03:36:06.465Z,35.83
2024-03-10T03:38:35.169Z,39.60
2024-03-10T03:41:03.209Z,37.40
2024-03-10T03:43:32.257Z,34.55
2024-03-10T03:46:01.490Z,37.53
2024-03-10T03:48:29.862Z,35.85
2024-03-10T03:50:59.199Z,35.17
2024-03-10T03:53:27.373Z,36.97
2024-03-10T03:55:55.512Z,41.85
2024-03-10T03:58:23.971Z,43.05
2024-03-10T04:00:51.869Z,45.25
2024-03-10T04:03:19.666Z,37.33
2024-03-10T04:05:47.691Z,41.67
2024-03-10T04:08:17.189Z,39.78
2024-03-10T04:10:45.069Z,39.65
2024-03-10T04:13:13.466Z,39.72
2024-03-10T04:15:41.213Z,44.88
2024-03-10T04:18:10.047Z,44.38
2024-03-10T04:20:37.880Z,40.90
2024-03-10T04:23:07.078Z,38.92
2024-03-10T04:25:37.087Z,43.22
2024-03-10T04:28:06.046Z,43.53
2024-03-10T04:30:35.638Z,42.63
2024-03-10T04:33:04.076Z,42.08
2024-03-10T04:35:31.916Z,42.03
2024-03-10T04:38:00.349Z,44.15
2024-03-10T04:40:28.334Z,49.60
2024-03-10T04:42:57.860Z,46.92
2024-03-10T04:45:25.842Z,44.97
2024-03-10T04:47:54.241Z,50.03
2024-03-10T04:50:22.371Z,46.63
2024-03-10T04:52:52.010Z,45.83
2024-03-10T04:55:19.845Z,44.58
2024-03-10T04:57:48.850Z,43.97
2024-03-10T05:00:19.881Z,40.92
2024-03-10T05:02:48.494Z,42.25
2024-03-10T05:05:17.527Z,44.75
2024-03-10T05:07:52.322Z,46.90
2024-03-10T05:10:21.347Z,48.83
2024-03-10T05:12:49.404Z,43.05
2024-03-10T05:15:18.872Z,49.00
2024-03-10T05:17:48.344Z,48.72
2024-03-10T05:20:18.441Z,45.40
2024-03-10T05:22:49.618Z,49.28
2024-03-10T05:25:17.790Z,49.75
2024-03-10T05:27:47.082Z,44.97
2024-03-10T05:30:16.462Z,48.97
2024-03-10T05:32:47.354Z,47.95
2024-03-10T05:35:17.643Z,50.35
2024-03-10T05:37:46.818Z,48.13
2024-03-10T05:40:14.706Z,50.47
2024-03-10T05:42:42.873Z,49.65
2024-03-10T05:45:12.214Z,46.65
2024-03-10T05:47:40.342Z,48.28
2024-03-10T05:50:09.956Z,51.92
2024-03-10T05:52:38.452Z,47.15
2024-03-10T05:55:08.420Z,49.38
2024-03-10T05:57:37.543Z,48.05
2024-03-10T06:00:07.446Z,49.45
2024-03-10T06:02:41.938Z,48.08
2024-03-10T06:05:13.119Z,48.35
2024-03-10T06:07:43.763Z,42.38
2024-03-10T06:10:12.626Z,42.80
2024-03-10T06:12:41.377Z,47.47
2024-03-10T06:15:12.976Z,47.83
2024-03-10T06:17:42.585Z,49.92
2024-03-10T06:20:30.421Z,46.90
2024-03-10T06:23:15.683Z,44.65
2024-03-10T06:25:43.847Z,49.47
2024-03-10T06:28:11.592Z,42.70
2024-03-10T06:30:39.919Z,47.05
2024-03-10T06:33:08.343Z,48.08
2024-03-10T06:35:39.397Z,48.35
2024-03-10T06:38:08.410Z,46.78
2024-03-10T06:40:36.723Z,46.40
2024-03-10T06:43:05.112Z,47.30
2024-03-10T06:45:34.034Z,49.08
2024-03-10T06:48:02.025Z,44.38
2024-03-10T06:50:33.380Z,46.38
2024-03-10T06:53:04.040Z,45.10
2024-03-10T06:55:32.684Z,43.10
2024-03-10T06:58:00.778Z,42.20
2024-03-10T07:00:30.657Z,45.33
2024-03-10T07:02:59.681Z,43.42
2024-03-10T07:05:28.542Z,38.85
2024-03-10T07:07:56.276Z,42.95
2024-03-10T07:10:25.995Z,43.20
2024-03-10T07:12:54.162Z,41.45
2024-03-10T07:15:23.665Z,44.95
2024-03-10T07:17:51.799Z,40.72
2024-03-10T07:20:20.358Z,40.42
2024-03-10T07:22:48.138Z,44.00
2024-03-10T07:25:16.589Z,42.78
2024-03-10T07:27:45.676Z,44.90
2024-03-10T07:30:15.323Z,40.97
2024-03-10T07:32:43.947Z,40.10
2024-03-10T07:35:16.133Z,42.47
2024-03-10T07:37:45.691Z,35.92
2024-03-10T07:40:19.488Z,34.95
2024-03-10T07:42:51.429Z,33.78
2024-03-10T07:45:21.094Z,37.85
2024-03-10T07:47:50.519Z,38.22
2024-03-10T07:50:20.562Z,36.13
2024-03-10T07:52:48.949Z,35.25
2024-03-10T07:55:19.903Z,38.40
2024-03-10T07:57:49.251Z,35.88
2024-03-10T08:00:23.710Z,37.03
2024-03-10T08:02:53.429Z,31.33
2024-03-10T08:05:22.139Z,32.65
2024-03-10T08:07:50.935Z,37.72
2024-03-10T08:10:20.407Z,37.33
2024-03-10T08:12:51.202Z,29.23
2024-03-10T08:15:19.329Z,32.65
2024-03-10T08:17:47.611Z,31.15
2024-03-10T08:20:17.404Z,37.28
2024-03-10T08:22:47.452Z,30.05
2024-03-10T08:25:16.021Z,31.00
2024-03-10T08:27:44.753Z,32.78
2024-03-10T08:30:17.796Z,32.55
2024-03-10T08:32:47.074Z,29.98
2024-03-10T08:35:17.558Z,31.17
2024-03-10T08:37:47.671Z,32.50
2024-03-10T08:40:18.628Z,31.90
2024-03-10T08:42:47.376Z,30.10
2024-03-10T08:45:16.661Z,29.42
2024-03-10T08:47:47.052Z,32.08
2024-03-10T08:50:15.701Z,31.40
2024-03-10T08:52:44.264Z,30.25
2024-03-10T08:55:16.547Z,31.33
2024-03-10T08:57:45.063Z,33.28
2024-03-10T09:00:15.565Z,31.85
2024-03-10T09:02:44.813Z,29.58
2024-03-10T09:05:17.422Z,31.85
2024-03-10T09:07:45.681Z,30.85
2024-03-10T09:10:14.268Z,28.00
2024-03-10T09:12:43.971Z,33.55
2024-03-10T09:15:14.225Z,28.88
2024-03-10T09:17:44.605Z,30.42
2024-03-10T09:20:14.802Z,32.25
2024-03-10T09:22:43.912Z,30.13
2024-03-10T09:25:22.515Z,31.40
2024-03-10T09:27:55.581Z,26.15
2024-03-10T09:30:25.968Z,27.85
2024-03-10T09:32:56.570Z,27.70
2024-03-10T09:35:30.306Z,26.35
2024-03-10T09:38:01.895Z,28.15
2024-03-10T09:40:31.747Z,30.58
2024-03-10T09:43:01.030Z,27.85
2024-03-10T09:45:30.514Z,30.17
2024-03-10T09:48:02.590Z,34.55
2024-03-10T09:50:32.999Z,24.10
2024-03-10T09:53:01.068Z,28.88
2024-03-10T09:55:29.079Z,24.00
2024-03-10T09:57:58.136Z,25.40
2024-03-10T10:00:27.846Z,26.48
2024-03-10T10:03:03.463Z,25.80
2024-03-10T10:05:34.626Z,25.00
2024-03-10T10:08:07.070Z,24.35
2024-03-10T10:10:37.609Z,23.92
2024-03-10T10:13:09.938Z,29.45
2024-03-10T10:15:38.871Z,28.45
2024-03-10T10:18:16.992Z,25.60
2024-03-10T10:20:48.764Z,23.90
2024-03-10T10:23:16.875Z,25.15
2024-03-10T10:25:47.073Z,27.90
2024-03-10T10:28:17.098Z,25.00
2024-03-10T10:30:45.807Z,26.65
2024-03-10T10:33:16.026Z,28.40
2024-03-10T10:35:47.401Z,26.88
2024-03-10T10:38:16.338Z,23.67
2024-03-10T10:40:46.535Z,24.85
2024-03-10T10:43:14.742Z,23.20
2024-03-10T10:45:44.549Z,23.80
2024-03-10T10:48:14.868Z,27.60
2024-03-10T10:50:44.994Z,25.50
2024-03-10T10:53:14.671Z,22.38
2024-03-10T10:55:47.806Z,22.92
2024-03-10T10:58:19.173Z,23.60
2024-03-10T11:00:51.947Z,28.85
2024-03-10T11:03:26.684Z,26.15
2024-03-10T11:06:28.784Z,25.42
2024-03-10T11:08:58.131Z,26.23
2024-03-10T11:11:46.587Z,24.92
2024-03-10T11:14:17.756Z,24.48
2024-03-10T11:16:46.149Z,21.80
2024-03-10T11:19:23.349Z,29.55
2024-03-10T11:21:52.578Z,24.25
2024-03-10T11:24:23.460Z,26.00
2024-03-10T11:27:12.490Z,24.08
2024-03-10T11:29:42.681Z,25.83
2024-03-10T11:32:33.265Z,22.60
2024-03-10T11:35:22.006Z,26.17
2024-03-10T11:38:01.033Z,24.65
2024-03-10T11:40:31.329Z,25.30
2024-03-10T11:43:00.049Z,23.13
2024-03-10T11:45:28.139Z,28.08
2024-03-10T11:47:56.501Z,24.17
2024-03-10T11:50:26.433Z,21.85
2024-03-10T11:52:54.587Z,21.85
2024-03-10T11:55:22.542Z,21.90
2024-03-10T11:57:54.325Z,20.80
2024-03-10T12:00:27.331Z,23.13
2024-03-10T12:02:57.103Z,21.58
2024-03-10T12:05:26.649Z,21.48
2024-03-10T12:07:56.053Z,21.30
2024-03-10T12:10:26.241Z,20.73
2024-03-10T12:12:55.896Z,18.70
2024-03-10T12:15:27.392Z,18.17
2024-03-10T12:17:56.377Z,17.00
2024-03-10T12:20:27.354Z,14.73
2024-03-10T12:22:59.416Z,21.95
2024-03-10T12:25:28.321Z,25.27
2024-03-10T12:27:55.200Z,20.75
2024-03-10T12:30:23.146Z,20.08
2024-03-10T12:32:53.291Z,15.38
2024-03-10T12:35:22.852Z,18.73
2024-03-10T12:37:53.648Z,22.80
2024-03-10T12:40:22.936Z,18.48
2024-03-10T12:42:52.706Z,19.35
2024-03-10T12:45:21.362Z,15.50
2024-03-10T12:47:51.486Z,15.43
2024-03-10T12:50:19.848Z,19.50
2024-03-10T12:52:48.422Z,21.73
2024-03-10T12:55:19.442Z,22.65
2024-03-10T12:57:47.544Z,20.45
2024-03-10T13:00:28.159Z,19.70
2024-03-10T13:02:58.383Z,20.35
2024-03-10T13:05:30.228Z,23.80
2024-03-10T13:08:02.513Z,16.60
2024-03-10T13:10:34.363Z,22.77
2024-03-10T13:13:03.408Z,20.30
2024-03-10T13:15:32.703Z,19.70
2024-03-10T13:18:00.660Z,21.35
2024-03-10T13:20:28.967Z,19.13
2024-03-10T13:22:57.107Z,19.88
2024-03-10T13:25:24.910Z,18.58
2024-03-10T13:27:54.343Z,19.17
2024-03-10T13:30:22.126Z,17.88
2024-03-10T13:32:50.050Z,16.85
2024-03-10T13:35:20.875Z,17.58
2024-03-10T13:37:49.466Z,17.33
2024-03-10T13:40:20.185Z,21.00
2024-03-10T13:42:50.704Z,15.63
2024-03-10T13:45:27.771Z,22.35
2024-03-10T13:48:06.077Z,16.67
2024-03-10T13:50:34.815Z,15.70
2024-03-10T13:53:02.687Z,20.25
2024-03-10T13:55:30.558Z,18.08
2024-03-10T13:57:58.821Z,20.52
2024-03-10T14:00:28.680Z,17.30
2024-03-10T14:02:59.175Z,19.58
2024-03-10T14:05:28.674Z,15.95
2024-03-10T14:07:56.507Z,18.00
2024-03-10T14:10:24.464Z,19.45
2024-03-10T14:12:52.213Z,17.00
2024-03-10T14:15:22.092Z,21.63
2024-03-10T14:17:51.427Z,21.20
2024-03-10T14:20:27.176Z,17.77
2024-03-10T14:22:55.444Z,18.85
2024-03-10T14:25:23.275Z,19.13
2024-03-10T14:27:52.393Z,24.10
2024-03-10T14:30:22.867Z,19.77
2024-03-10T14:32:54.922Z,20.88
2024-03-10T14:35:25.138Z,19.85
2024-03-10T14:37:54.077Z,16.80
2024-03-10T14:40:23.234Z,20.15
2024-03-10T14:42:53.041Z,20.40
2024-03-10T14:45:22.158Z,17.95
2024-03-10T14:47:53.283Z,22.00
2024-03-10T14:50:24.788Z,20.60
2024-03-10T14:52:56.195Z,19.42
2024-03-10T14:55:25.718Z,22.20
2024-03-10T14:57:53.556Z,18.55
2024-03-10T15:00:35.433Z,17.52
2024-03-10T15:03:08.679Z,24.63
2024-03-10T15:05:38.388Z,23.55
2024-03-10T15:08:07.409Z,21.42
2024-03-10T15:10:36.779Z,24.65
2024-03-10T15:13:08.471Z,25.92
2024-03-10T15:15:36.944Z,21.80
2024-03-10T15:18:09.161Z,24.30
2024-03-10T15:20:41.658Z,20.92
2024-03-10T15:23:12.769Z,20.15
2024-03-10T15:25:40.844Z,21.58
2024-03-10T15:28:10.304Z,23.10
2024-03-10T15:30:39.658Z,22.98
2024-03-10T15:33:09.682Z,22.23
2024-03-10T15:35:38.747Z,24.60
2024-03-10T15:38:07.699Z,22.33
2024-03-10T15:40:36.774Z,21.50
2024-03-10T15:43:05.385Z,22.38
2024-03-10T15:45:36.374Z,24.52
2024-03-10T15:48:06.406Z,23.55
2024-03-10T15:50:35.744Z,24.67
2024-03-10T15:53:05.334Z,21.38
2024-03-10T15:55:33.753Z,23.35
2024-03-10T15:58:01.880Z,18.98
2024-03-10T16:00:30.558Z,21.85
2024-03-10T16:03:03.970Z,25.33
2024-03-10T16:05:39.942Z,21.30
2024-03-10T16:08:10.634Z,23.88
2024-03-10T16:10:40.666Z,24.88
2024-03-10T16:13:11.732Z,20.10
2024-03-10T16:15:41.566Z,24.30
2024-03-10T16:18:11.203Z,18.77
2024-03-10T16:20:45.904Z,25.88
2024-03-10T16:23:15.272Z,20.60
2024-03-10T16:25:43.932Z,18.98
2024-03-10T16:28:11.777Z,22.00
2024-03-10T16:30:39.860Z,23.73
2024-03-10T16:33:07.665Z,22.85
2024-03-10T16:35:36.683Z,20.42
2024-03-10T16:38:08.025Z,17.58
2024-03-10T16:40:36.447Z,22.52
2024-03-10T16:43:04.702Z,24.30
2024-03-10T16:45:32.576Z,22.67
2024-03-10T16:48:00.700Z,19.70
2024-03-10T16:50:29.061Z,21.08
2024-03-10T16:52:58.151Z,19.00
2024-03-10T16:55:27.801Z,22.73
2024-03-10T16:57:58.251Z,21.48
2024-03-10T17:00:31.974Z,19.92
2024-03-10T17:03:02.317Z,22.85
2024-03-10T17:05:31.855Z,23.98
2024-03-10T17:08:02.387Z,21.45
2024-03-10T17:10:32.528Z,24.73
2024-03-10T17:13:01.489Z,24.83
2024-03-10T17:15:29.713Z,24.00
2024-03-10T17:17:58.139Z,21.13
2024-03-10T17:20:26.058Z,20.27
2024-03-10T17:22:54.326Z,25.33
2024-03-10T17:25:22.449Z,25.08
2024-03-10T17:27:51.574Z,20.88
2024-03-10T17:30:20.400Z,20.63
2024-03-10T17:32:51.979Z,25.48
2024-03-10T17:35:22.320Z,20.55
2024-03-10T17:37:50.169Z,23.95
2024-03-10T17:40:22.233Z,22.60
2024-03-10T17:42:51.828Z,21.70
2024-03-10T17:45:19.574Z,19.23
2024-03-10T17:47:48.067Z,19.90
2024-03-10T17:50:16.633Z,20.58
2024-03-10T17:52:46.598Z,19.65
2024-03-10T17:55:15.740Z,17.20
2024-03-10T17:57:43.815Z,20.40
2024-03-10T18:00:15.597Z,19.42
2024-03-10T18:02:45.175Z,19.15
2024-03-10T18:05:15.224Z,17.77
2024-03-10T18:07:43.230Z,19.52
2024-03-10T18:10:13.206Z,21.05
2024-03-10T18:12:43.252Z,18.63
2024-03-10T18:15:12.158Z,17.45
2024-03-10T18:17:41.854Z,19.88
2024-03-10T18:20:13.130Z,16.30
2024-03-10T18:22:45.438Z,19.60
2024-03-10T18:25:14.101Z,16.65
2024-03-10T18:27:43.605Z,19.92
2024-03-10T18:30:15.394Z,19.75
2024-03-10T18:32:44.694Z,20.90
2024-03-10T18:35:13.586Z,25.10
2024-03-10T18:37:41.944Z,20.58
2024-03-10T18:40:12.619Z,17.38
2024-03-10T18:42:41.596Z,20.45
2024-03-10T18:45:10.531Z,18.98
2024-03-10T18:47:38.780Z,19.50
2024-03-10T18:50:12.980Z,20.60
2024-03-10T18:52:42.631Z,17.70
2024-03-10T18:55:11.824Z,19.00
2024-03-10T18:57:40.091Z,19.25
2024-03-10T19:00:12.455Z,20.33
2024-03-10T19:02:40.778Z,18.88
2024-03-10T19:05:10.824Z,20.45
2024-03-10T19:07:41.520Z,20.00
2024-03-10T19:10:11.103Z,20.05
2024-03-10T19:12:40.715Z,21.27
2024-03-10T19:15:09.192Z,21.00
2024-03-10T19:17:37.020Z,22.77
2024-03-10T19:20:14.694Z,22.73
2024-03-10T19:22:48.377Z,21.67
2024-03-10T19:25:16.643Z,22.65
2024-03-10T19:27:45.456Z,21.63
2024-03-10T19:30:14.925Z,24.95
2024-03-10T19:32:42.915Z,24.45
2024-03-10T19:35:11.433Z,26.42
2024-03-10T19:37:39.878Z,21.60
2024-03-10T19:40:15.256Z,19.17
2024-03-10T19:42:43.437Z,22.75
2024-03-10T19:45:12.047Z,22.70
2024-03-10T19:47:42.118Z,21.38
2024-03-10T19:50:11.943Z,24.55
2024-03-10T19:52:40.495Z,20.70
2024-03-10T19:55:11.968Z,21.17
2024-03-10T19:57:41.209Z,21.63
2024-03-10T20:00:16.267Z,18.65
2024-03-10T20:02:44.652Z,21.90
2024-03-10T20:05:14.650Z,22.50
2024-03-10T20:07:47.860Z,21.60
2024-03-10T20:10:19.469Z,21.60
2024-03-10T20:12:51.179Z,20.08
2024-03-10T20:15:19.596Z,22.85
2024-03-10T20:17:50.507Z,22.38
2024-03-10T20:20:24.047Z,20.20
2024-03-10T20:22:55.471Z,22.30
2024-03-10T20:25:25.804Z,19.55
2024-03-10T20:27:57.879Z,22.27
2024-03-10T20:30:26.539Z,23.50
2024-03-10T20:32:54.733Z,21.80
2024-03-10T20:35:23.606Z,22.67
2024-03-10T20:37:51.419Z,24.05
2024-03-10T20:40:19.899Z,23.38
2024-03-10T20:42:49.367Z,21.73
2024-03-10T20:45:20.122Z,20.75
2024-03-10T20:47:50.967Z,26.08
2024-03-10T20:50:24.935Z,25.30
2024-03-10T20:52:54.574Z,26.95
2024-03-10T20:55:23.210Z,21.13
2024-03-10T20:57:54.002Z,24.02
2024-03-10T21:00:23.797Z,22.38
2024-03-10T21:02:52.778Z,19.48
2024-03-10T21:05:22.803Z,21.08
2024-03-10T21:07:51.041Z,23.77
2024-03-10T21:10:21.010Z,23.13
2024-03-10T21:12:49.166Z,21.52
2024-03-10T21:15:19.919Z,24.67
2024-03-10T21:17:47.784Z,21.40
2024-03-10T21:20:15.828Z,23.90
2024-03-10T21:22:44.565Z,25.77
2024-03-10T21:25:12.596Z,24.58
2024-03-10T21:27:44.833Z,25.05
2024-03-10T21:30:14.498Z,24.67
2024-03-10T21:32:45.762Z,20.83
2024-03-10T21:35:19.364Z,22.00
2024-03-10T21:37:48.781Z,26.05
2024-03-10T21:40:17.566Z,18.77
2024-03-10T21:42:45.730Z,25.23
2024-03-10T21:45:14.118Z,22.27
2024-03-10T21:47:43.893Z,21.38
2024-03-10T21:50:15.675Z,23.85
2024-03-10T21:52:46.504Z,21.15
2024-03-10T21:55:14.499Z,26.73
2024-03-10T21:57:42.750Z,23.25
2024-03-10T22:00:16.659Z,22.08
2024-03-10T22:02:47.374Z,22.58
2024-03-10T22:05:16.184Z,21.65
2024-03-10T22:07:44.799Z,24.27
2024-03-10T22:10:15.041Z,24.83
2024-03-10T22:12:44.970Z,25.00
2024-03-10T22:15:17.108Z,21.42
2024-03-10T22:17:48.608Z,23.13
2024-03-10T22:20:18.065Z,25.02
2024-03-10T22:22:47.245Z,22.55
2024-03-10T22:25:17.351Z,26.17
2024-03-10T22:27:46.028Z,25.77
2024-03-10T22:30:16.641Z,27.52
2024-03-10T22:32:45.198Z,23.33
2024-03-10T22:35:15.610Z,22.73
2024-03-10T22:37:46.021Z,22.25
2024-03-10T22:40:15.361Z,22.08
2024-03-10T22:42:43.500Z,23.33
2024-03-10T22:45:23.454Z,21.33
2024-03-10T22:47:56.863Z,24.08
2024-03-10T22:50:27.477Z,21.80
2024-03-10T22:52:55.908Z,23.08
2024-03-10T22:55:25.774Z,22.52
2024-03-10T22:57:54.185Z,24.88
2024-03-10T23:00:35.396Z,27.52
2024-03-10T23:03:04.023Z,21.88
2024-03-10T23:05:33.958Z,25.25
2024-03-10T23:08:05.298Z,25.08
2024-03-10T23:10:33.462Z,23.70
2024-03-10T23:13:01.580Z,24.75
2024-03-10T23:15:30.009Z,21.30
2024-03-10T23:17:59.563Z,22.67
2024-03-10T23:20:28.070Z,24.63
2024-03-10T23:22:58.740Z,22.55
2024-03-10T23:25:31.030Z,21.45
2024-03-10T23:28:01.394Z,21.98
2024-03-10T23:30:29.751Z,20.02
2024-03-10T23:32:58.667Z,25.33
2024-03-10T23:35:27.198Z,21.48
2024-03-10T23:37:57.133Z,23.65
2024-03-10T23:40:25.631Z,25.35
2024-03-10T23:42:54.372Z,24.27
2024-03-10T23:45:24.870Z,24.70
2024-03-10T23:47:53.590Z,21.90
2024-03-10T23:50:23.326Z,22.13
2024-03-10T23:52:54.613Z,23.30
2024-03-10T23:55:25.372Z,23.38
2024-03-10T23:58:02.231Z,25.42
